createdAt,value
2022-08-26T00:00:52.005Z,18.80
2022-08-26T00:03:21.233Z,18.33
2022-08-26T00:05:51.504Z,18.17
2022-08-26T00:08:21.405Z,17.13
2022-08-26T00:10:51.572Z,17.77
2022-08-26T00:13:20.211Z,19.87
2022-08-26T00:15:48.295Z,19.17
2022-08-26T00:18:22.226Z,17.63
2022-08-26T00:20:51.407Z,17.27
2022-08-26T00:23:19.521Z,19.53
2022-08-26T00:25:48.389Z,18.33
2022-08-26T00:28:19.045Z,17.40
2022-08-26T00:30:51.710Z,16.53
2022-08-26T00:33:21.106Z,15.57
2022-08-26T00:35:49.488Z,16.70
2022-08-26T00:38:23.018Z,18.30
2022-08-26T00:40:53.974Z,16.60
2022-08-26T00:43:25.450Z,17.80
2022-08-26T00:46:02.382Z,18.00
2022-08-26T00:48:34.378Z,18.77
2022-08-26T00:51:07.812Z,18.53
2022-08-26T00:53:41.452Z,17.20
2022-08-26T00:56:15.393Z,19.00
2022-08-26T00:58:45.614Z,17.67
2022-08-26T01:01:14.040Z,18.47
2022-08-26T01:03:45.281Z,17.77
2022-08-26T01:06:14.442Z,17.57
2022-08-26T01:08:42.952Z,17.37
2022-08-26T01:11:11.868Z,18.30
2022-08-26T01:13:40.432Z,17.50
2022-08-26T01:16:14.654Z,20.67
2022-08-26T01:18:45.227Z,21.60
2022-08-26T01:21:20.455Z,20.77
2022-08-26T01:23:57.478Z,21.90
2022-08-26T01:26:30.053Z,21.47
2022-08-26T01:29:00.992Z,20.33
2022-08-26T01:31:32.794Z,19.97
2022-08-26T01:34:07.612Z,18.70
2022-08-26T01:36:39.076Z,19.30
2022-08-26T01:39:09.303Z,19.90
2022-08-26T01:41:40.747Z,20.83
2022-08-26T01:44:17.980Z,18.40
2022-08-26T01:46:48.192Z,17.90
2022-08-26T01:49:20.406Z,18.47
2022-08-26T01:51:50.328Z,17.20
2022-08-26T01:54:22.945Z,16.07
2022-08-26T01:56:52.297Z,16.77
2022-08-26T01:59:23.777Z,18.37
2022-08-26T02:01:52.733Z,18.93
2022-08-26T02:04:25.231Z,18.90
2022-08-26T02:06:54.686Z,20.20
2022-08-26T02:09:25.687Z,18.30
2022-08-26T02:11:54.992Z,18.37
2022-08-26T02:14:27.871Z,16.30
2022-08-26T02:16:57.299Z,17.67
2022-08-26T02:19:31.037Z,18.40
2022-08-26T02:22:02.287Z,16.40
2022-08-26T02:24:49.619Z,16.37
2022-08-26T02:27:19.918Z,15.97
2022-08-26T02:29:52.412Z,17.23
2022-08-26T02:32:20.927Z,16.73
2022-08-26T02:34:48.956Z,16.63
2022-08-26T02:37:17.716Z,16.60
2022-08-26T02:39:48.081Z,17.07
2022-08-26T02:42:16.126Z,16.90
2022-08-26T02:44:44.110Z,16.87
2022-08-26T02:47:15.605Z,17.03
2022-08-26T02:49:44.685Z,17.53
2022-08-26T02:52:16.125Z,17.03
2022-08-26T02:54:44.457Z,17.87
2022-08-26T02:57:15.239Z,17.10
2022-08-26T02:59:43.785Z,19.07
2022-08-26T03:02:12.894Z,20.83
2022-08-26T03:04:57.351Z,21.70
2022-08-26T03:07:26.934Z,19.83
2022-08-26T03:09:54.933Z,19.20
2022-08-26T03:12:24.306Z,18.27
2022-08-26T03:14:54.533Z,18.10
2022-08-26T03:17:22.578Z,18.93
2022-08-26T03:19:54.669Z,17.90
2022-08-26T03:22:26.273Z,18.53
2022-08-26T03:24:55.832Z,17.87
2022-08-26T03:27:25.100Z,17.23
2022-08-26T03:30:11.833Z,19.97
2022-08-26T03:32:41.560Z,16.83
2022-08-26T03:35:10.971Z,19.30
2022-08-26T03:37:38.928Z,18.47
2022-08-26T03:40:10.827Z,19.83
2022-08-26T03:42:44.479Z,19.03
2022-08-26T03:45:18.669Z,18.17
2022-08-26T03:47:47.209Z,21.17
2022-08-26T03:50:24.280Z,20.07
2022-08-26T03:52:54.813Z,20.63
2022-08-26T03:55:24.986Z,19.43
2022-08-26T03:57:55.004Z,21.70
2022-08-26T04:00:23.423Z,19.80
2022-08-26T04:02:53.202Z,19.47
2022-08-26T04:05:23.502Z,20.07
2022-08-26T04:07:51.702Z,21.33
2022-08-26T04:10:26.394Z,24.70
2022-08-26T04:12:59.755Z,23.13
2022-08-26T04:15:28.547Z,24.67
2022-08-26T04:17:57.574Z,23.20
2022-08-26T04:20:26.201Z,21.63
2022-08-26T04:22:54.827Z,23.23
2022-08-26T04:25:24.174Z,20.23
2022-08-26T04:27:52.544Z,23.33
2022-08-26T04:30:22.267Z,22.70
2022-08-26T04:32:50.243Z,21.90
2022-08-26T04:35:18.576Z,20.97
2022-08-26T04:37:50.920Z,21.27
2022-08-26T04:40:19.039Z,21.17
2022-08-26T04:42:47.169Z,19.80
2022-08-26T04:45:16.901Z,21.13
2022-08-26T04:47:46.917Z,19.57
2022-08-26T04:50:15.297Z,18.70
2022-08-26T04:52:46.567Z,19.13
2022-08-26T04:55:14.971Z,19.13
2022-08-26T04:57:43.856Z,18.63
2022-08-26T05:00:13.308Z,17.50
2022-08-26T05:02:41.976Z,19.37
2022-08-26T05:05:12.274Z,17.37
2022-08-26T05:07:40.596Z,20.40
2022-08-26T05:10:10.088Z,20.27
2022-08-26T05:12:39.310Z,21.97
2022-08-26T05:15:10.349Z,17.90
2022-08-26T05:17:38.303Z,15.70
2022-08-26T05:20:07.391Z,15.00
2022-08-26T05:22:36.658Z,13.50
2022-08-26T05:25:05.842Z,14.70
2022-08-26T05:27:33.780Z,12.70
2022-08-26T05:30:02.511Z,13.60
2022-08-26T05:32:32.402Z,13.67
2022-08-26T05:35:00.281Z,13.63
2022-08-26T05:37:29.172Z,14.20
2022-08-26T05:39:58.732Z,14.90
2022-08-26T05:42:26.698Z,14.27
2022-08-26T05:44:56.351Z,12.97
2022-08-26T05:47:24.745Z,13.67
2022-08-26T05:49:55.005Z,14.83
2022-08-26T05:52:24.533Z,15.97
2022-08-26T05:54:54.303Z,16.40
2022-08-26T05:57:24.325Z,12.23
2022-08-26T05:59:52.721Z,12.20
2022-08-26T06:02:20.682Z,16.03
2022-08-26T06:04:49.130Z,14.10
2022-08-26T06:07:17.141Z,12.70
2022-08-26T06:09:46.991Z,12.47
2022-08-26T06:12:15.798Z,11.90
2022-08-26T06:14:49.032Z,12.43
2022-08-26T06:17:16.992Z,12.87
2022-08-26T06:19:45.763Z,11.40
2022-08-26T06:22:28.045Z,11.73
2022-08-26T06:25:14.249Z,11.47
2022-08-26T06:27:42.775Z,10.87
2022-08-26T06:30:14.210Z,11.00
2022-08-26T06:32:43.885Z,11.13
2022-08-26T06:35:12.484Z,10.93
2022-08-26T06:37:40.537Z,10.30
2022-08-26T06:40:11.583Z,11.00
2022-08-26T06:42:42.444Z,10.73
2022-08-26T06:45:20.216Z,10.37
2022-08-26T06:47:49.447Z,9.80
2022-08-26T06:50:17.620Z,10.77
2022-08-26T06:52:46.653Z,9.67
2022-08-26T06:55:14.730Z,9.30
2022-08-26T06:57:42.945Z,8.77
2022-08-26T07:00:15.713Z,8.03
2022-08-26T07:02:47.084Z,11.10
2022-08-26T07:05:15.851Z,10.60
2022-08-26T07:07:43.790Z,9.60
2022-08-26T07:10:12.412Z,9.67
2022-08-26T07:12:40.302Z,9.07
2022-08-26T07:15:10.709Z,9.63
2022-08-26T07:17:40.333Z,9.43
2022-08-26T07:20:09.924Z,9.40
2022-08-26T07:22:38.311Z,8.40
2022-08-26T07:25:09.550Z,9.53
2022-08-26T07:27:38.830Z,9.63
2022-08-26T07:30:08.888Z,10.20
2022-08-26T07:32:37.558Z,10.07
2022-08-26T07:35:08.227Z,8.60
2022-08-26T07:37:39.324Z,9.20
2022-08-26T07:40:08.860Z,9.17
2022-08-26T07:42:37.357Z,9.40
2022-08-26T07:45:06.142Z,9.30
2022-08-26T07:47:34.586Z,10.17
2022-08-26T07:50:02.477Z,10.00
2022-08-26T07:52:32.449Z,9.70
2022-08-26T07:55:04.851Z,10.73
2022-08-26T07:57:34.554Z,11.90
2022-08-26T08:00:03.392Z,10.60
2022-08-26T08:02:31.823Z,9.63
2022-08-26T08:05:00.350Z,9.47
2022-08-26T08:07:44.397Z,9.23
2022-08-26T08:10:17.696Z,11.07
2022-08-26T08:12:46.623Z,10.17
2022-08-26T08:15:17.739Z,9.20
2022-08-26T08:17:45.826Z,9.50
2022-08-26T08:20:15.938Z,9.73
2022-08-26T08:22:44.092Z,8.27
2022-08-26T08:25:14.723Z,9.10
2022-08-26T08:27:45.558Z,8.83
2022-08-26T08:30:14.441Z,7.90
2022-08-26T08:32:43.618Z,8.00
2022-08-26T08:35:13.889Z,8.20
2022-08-26T08:37:42.658Z,6.83
2022-08-26T08:40:18.291Z,6.90
2022-08-26T08:45:36.608Z,7.13
2022-08-26T08:48:08.415Z,7.37
2022-08-26T08:50:45.833Z,6.60
2022-08-26T08:53:17.811Z,6.07
2022-08-26T08:56:02.012Z,5.60
2022-08-26T08:58:44.117Z,6.30
2022-08-26T09:01:21.091Z,5.20
2022-08-26T09:03:57.098Z,5.57
2022-08-26T09:06:27.764Z,6.60
2022-08-26T09:08:57.956Z,5.03
2022-08-26T09:11:27.481Z,5.93
2022-08-26T09:13:58.196Z,5.00
2022-08-26T09:16:36.062Z,5.00
2022-08-26T09:19:18.879Z,6.50
2022-08-26T09:21:57.826Z,4.95
2022-08-26T09:24:28.313Z,5.73
2022-08-26T09:26:59.182Z,5.30
2022-08-26T09:29:34.408Z,6.50
2022-08-26T09:32:21.098Z,5.43
2022-08-26T09:35:00.122Z,5.20
2022-08-26T09:37:41.109Z,4.90
2022-08-26T09:40:18.615Z,5.33
2022-08-26T09:43:10.724Z,5.30
2022-08-26T09:45:40.542Z,5.10
2022-08-26T09:48:31.288Z,5.53
2022-08-26T09:51:03.127Z,5.40
2022-08-26T09:53:36.577Z,5.40
2022-08-26T09:56:18.321Z,6.05
2022-08-26T09:58:48.952Z,4.32
2022-08-26T10:01:26.344Z,5.00
2022-08-26T10:03:54.461Z,5.00
2022-08-26T10:06:27.184Z,6.03
2022-08-26T10:08:59.181Z,5.23
2022-08-26T10:11:35.931Z,5.07
2022-08-26T10:14:13.103Z,5.27
2022-08-26T10:16:48.479Z,5.07
2022-08-26T10:19:20.566Z,5.27
2022-08-26T10:21:56.692Z,4.87
2022-08-26T10:24:31.521Z,5.27
2022-08-26T10:27:06.043Z,5.27
2022-08-26T10:29:43.903Z,4.80
2022-08-26T10:32:18.326Z,4.43
2022-08-26T10:34:46.561Z,5.57
2022-08-26T10:37:19.921Z,5.00
2022-08-26T10:39:58.509Z,5.27
2022-08-26T10:42:35.699Z,5.20
2022-08-26T10:45:15.080Z,4.67
2022-08-26T10:47:50.006Z,4.63
2022-08-26T10:50:19.428Z,5.10
2022-08-26T10:52:58.899Z,5.10
2022-08-26T10:55:37.592Z,5.10
2022-08-26T10:58:26.220Z,4.30
2022-08-26T11:01:22.849Z,5.23
2022-08-26T11:03:59.222Z,4.10
2022-08-26T11:06:29.284Z,4.20
2022-08-26T11:08:59.568Z,5.03
2022-08-26T11:11:50.830Z,5.03
2022-08-26T11:14:58.635Z,6.80
2022-08-26T11:18:07.154Z,6.40
2022-08-26T11:20:41.886Z,6.40
2022-08-26T11:23:40.422Z,7.30
2022-08-26T11:26:32.804Z,6.50
2022-08-26T11:29:04.561Z,6.60
2022-08-26T11:31:55.747Z,7.27
2022-08-26T11:34:56.386Z,7.40
2022-08-26T11:37:34.729Z,5.87
2022-08-26T11:40:07.723Z,7.67
2022-08-26T11:42:41.629Z,7.13
2022-08-26T11:45:19.812Z,7.20
2022-08-26T11:47:49.432Z,8.43
2022-08-26T11:50:23.275Z,9.13
2022-08-26T11:52:59.513Z,8.33
2022-08-26T11:55:27.491Z,7.47
2022-08-26T11:57:58.163Z,7.33
2022-08-26T12:00:33.746Z,6.83
2022-08-26T12:03:07.826Z,8.03
2022-08-26T12:05:43.731Z,7.70
2022-08-26T12:08:16.684Z,6.53
2022-08-26T12:10:44.723Z,7.37
2022-08-26T12:13:22.687Z,7.03
2022-08-26T12:15:55.928Z,7.60
2022-08-26T12:18:29.547Z,6.80
2022-08-26T12:21:02.677Z,6.67
2022-08-26T12:23:43.266Z,6.50
2022-08-26T12:26:19.906Z,6.37
2022-08-26T12:28:50.763Z,6.43
2022-08-26T12:31:37.949Z,6.10
2022-08-26T12:34:17.673Z,5.97
2022-08-26T12:36:50.433Z,5.60
2022-08-26T12:39:27.854Z,5.97
2022-08-26T12:41:57.798Z,6.77
2022-08-26T12:44:53.965Z,6.60
2022-08-26T12:47:39.015Z,5.73
2022-08-26T12:50:17.813Z,5.80
2022-08-26T12:52:57.360Z,6.83
2022-08-26T12:55:29.347Z,5.70
2022-08-26T12:58:11.703Z,6.27
2022-08-26T13:00:41.778Z,5.80
2022-08-26T13:03:31.741Z,5.93
2022-08-26T13:06:25.771Z,5.40
2022-08-26T13:08:57.784Z,6.10
2022-08-26T13:11:27.756Z,6.47
2022-08-26T13:13:59.155Z,6.67
2022-08-26T13:16:27.532Z,6.33
2022-08-26T13:18:57.633Z,6.37
2022-08-26T13:21:28.431Z,5.93
2022-08-26T13:24:06.166Z,7.00
2022-08-26T13:26:35.133Z,6.40
2022-08-26T13:29:05.369Z,6.83
2022-08-26T13:31:37.478Z,6.40
2022-08-26T13:34:05.580Z,6.80
2022-08-26T13:36:33.866Z,6.40
2022-08-26T13:39:03.219Z,7.10
2022-08-26T13:41:32.275Z,6.00
2022-08-26T13:44:00.232Z,6.83
2022-08-26T13:46:29.105Z,6.20
2022-08-26T13:48:57.223Z,7.13
2022-08-26T13:51:26.151Z,6.30
2022-08-26T13:53:54.925Z,5.30
2022-08-26T13:56:27.425Z,7.10
2022-08-26T13:58:55.271Z,7.50
2022-08-26T14:01:23.992Z,7.60
2022-08-26T14:03:52.008Z,7.07
2022-08-26T14:06:20.655Z,7.10
2022-08-26T14:08:49.480Z,6.77
2022-08-26T14:11:17.911Z,7.20
2022-08-26T14:13:47.269Z,7.67
2022-08-26T14:16:22.801Z,6.50
2022-08-26T14:18:51.232Z,6.87
2022-08-26T14:21:21.209Z,6.83
2022-08-26T14:23:49.216Z,7.07
2022-08-26T14:26:28.981Z,5.80
2022-08-26T14:28:59.764Z,6.70
2022-08-26T14:31:29.628Z,6.87
2022-08-26T14:33:59.202Z,6.30
2022-08-26T14:36:32.495Z,6.50
2022-08-26T14:39:04.123Z,7.20
2022-08-26T14:41:33.603Z,6.30
2022-08-26T14:44:05.409Z,6.33
2022-08-26T14:46:39.972Z,6.70
2022-08-26T14:49:10.746Z,7.50
2022-08-26T14:51:39.541Z,8.33
2022-08-26T14:54:13.529Z,7.13
2022-08-26T14:56:46.386Z,6.53
2022-08-26T14:59:19.126Z,8.30
2022-08-26T15:01:48.444Z,8.50
2022-08-26T15:04:17.037Z,7.90
2022-08-26T15:06:45.396Z,8.63
2022-08-26T15:09:13.617Z,8.40
2022-08-26T15:11:42.018Z,9.00
2022-08-26T15:14:19.100Z,8.93
2022-08-26T15:16:49.880Z,8.20
2022-08-26T15:19:18.228Z,9.10
2022-08-26T15:21:47.659Z,8.83
2022-08-26T15:24:18.184Z,8.40
2022-08-26T15:26:47.440Z,8.43
2022-08-26T15:29:15.889Z,8.33
2022-08-26T15:31:44.480Z,7.60
2022-08-26T15:34:16.971Z,7.67
2022-08-26T15:36:47.265Z,7.97
2022-08-26T15:39:17.167Z,8.10
2022-08-26T15:41:45.544Z,7.53
2022-08-26T15:44:16.528Z,8.10
2022-08-26T15:46:45.530Z,9.10
2022-08-26T15:49:17.518Z,8.27
2022-08-26T15:51:48.273Z,7.47
2022-08-26T15:54:18.116Z,9.47
2022-08-26T15:56:48.479Z,8.63
2022-08-26T15:59:17.199Z,7.60
2022-08-26T16:01:45.798Z,7.43
2022-08-26T16:04:15.156Z,7.60
2022-08-26T16:06:43.686Z,8.40
2022-08-26T16:09:11.964Z,7.37
2022-08-26T16:11:40.375Z,7.80
2022-08-26T16:14:08.360Z,7.63
2022-08-26T16:16:39.609Z,8.10
2022-08-26T16:19:07.867Z,8.30
2022-08-26T16:21:37.450Z,7.87
2022-08-26T16:24:06.142Z,7.50
2022-08-26T16:26:37.586Z,9.67
2022-08-26T16:29:08.681Z,7.87
2022-08-26T16:31:38.404Z,7.70
2022-08-26T16:34:06.624Z,7.80
2022-08-26T16:36:35.744Z,8.30
2022-08-26T16:39:07.193Z,8.03
2022-08-26T16:41:35.740Z,7.37
2022-08-26T16:44:04.879Z,6.50
2022-08-26T16:46:34.114Z,4.70
2022-08-26T16:49:04.563Z,5.03
2022-08-26T16:51:37.725Z,4.83
2022-08-26T16:54:08.885Z,4.20
2022-08-26T16:56:37.622Z,4.47
2022-08-26T16:59:08.051Z,3.90
2022-08-26T17:01:36.222Z,4.33
2022-08-26T17:04:04.780Z,4.83
2022-08-26T17:06:33.181Z,4.63
2022-08-26T17:09:01.666Z,5.43
2022-08-26T17:11:31.340Z,4.33
2022-08-26T17:13:59.681Z,4.73
2022-08-26T17:16:27.735Z,5.50
2022-08-26T17:18:57.255Z,4.40
2022-08-26T17:21:26.011Z,4.83
2022-08-26T17:23:54.410Z,5.43
2022-08-26T17:26:22.455Z,4.97
2022-08-26T17:28:52.531Z,5.27
2022-08-26T17:31:21.475Z,6.30
2022-08-26T17:33:53.524Z,6.60
2022-08-26T17:36:27.879Z,8.50
2022-08-26T17:38:57.916Z,7.40
2022-08-26T17:41:26.971Z,8.10
2022-08-26T17:43:56.831Z,7.30
2022-08-26T17:46:25.208Z,9.53
2022-08-26T17:48:53.657Z,9.40
2022-08-26T17:51:23.446Z,8.70
2022-08-26T17:53:52.235Z,10.00
2022-08-26T17:56:23.922Z,10.57
2022-08-26T17:58:53.098Z,10.73
2022-08-26T18:01:23.478Z,10.90
2022-08-26T18:03:51.588Z,11.30
2022-08-26T18:06:21.524Z,12.20
2022-08-26T18:08:51.697Z,11.47
2022-08-26T18:11:23.049Z,10.87
2022-08-26T18:13:51.672Z,11.50
2022-08-26T18:16:19.809Z,11.63
2022-08-26T18:18:53.770Z,11.63
2022-08-26T18:21:24.325Z,10.90
2022-08-26T18:23:53.347Z,9.73
2022-08-26T18:26:23.884Z,9.80
2022-08-26T18:28:52.289Z,9.40
2022-08-26T18:31:20.662Z,9.53
2022-08-26T18:33:50.464Z,9.53
2022-08-26T18:36:20.256Z,8.10
2022-08-26T18:38:50.636Z,8.47
2022-08-26T18:41:20.713Z,9.13
2022-08-26T18:43:50.756Z,8.80
2022-08-26T18:46:20.400Z,8.63
2022-08-26T18:48:51.237Z,10.00
2022-08-26T18:51:21.457Z,9.67
2022-08-26T18:53:49.981Z,9.40
2022-08-26T18:56:18.704Z,8.80
2022-08-26T18:58:47.913Z,8.93
2022-08-26T19:01:16.697Z,9.30
2022-08-26T19:03:45.279Z,10.07
2022-08-26T19:06:16.782Z,11.27
2022-08-26T19:08:45.143Z,10.47
2022-08-26T19:11:31.154Z,11.80
2022-08-26T19:14:00.027Z,10.10
2022-08-26T19:16:28.978Z,10.37
2022-08-26T19:18:58.793Z,10.53
2022-08-26T19:21:29.371Z,10.20
2022-08-26T19:23:58.655Z,10.90
2022-08-26T19:26:27.632Z,11.63
2022-08-26T19:28:56.016Z,10.47
2022-08-26T19:31:24.155Z,10.60
2022-08-26T19:33:52.540Z,9.87
2022-08-26T19:36:22.794Z,11.63
2022-08-26T19:38:52.735Z,10.13
2022-08-26T19:41:26.571Z,10.50
2022-08-26T19:44:09.310Z,10.60
2022-08-26T19:49:07.673Z,10.90
2022-08-26T19:51:37.673Z,12.20
2022-08-26T19:54:07.613Z,11.50
2022-08-26T19:56:35.611Z,12.17
2022-08-26T19:59:03.949Z,12.90
2022-08-26T20:01:32.049Z,11.17
2022-08-26T20:04:00.467Z,11.70
2022-08-26T20:06:28.550Z,12.77
2022-08-26T20:08:56.877Z,12.57
2022-08-26T20:11:26.525Z,13.10
2022-08-26T20:13:55.695Z,12.63
2022-08-26T20:16:23.869Z,13.53
2022-08-26T20:19:09.580Z,15.10
2022-08-26T20:21:39.839Z,14.83
2022-08-26T20:24:10.480Z,14.60
2022-08-26T20:26:42.873Z,12.90
2022-08-26T20:29:12.905Z,13.37
2022-08-26T20:31:49.902Z,13.13
2022-08-26T20:34:20.258Z,14.30
2022-08-26T20:36:49.479Z,14.20
2022-08-26T20:39:19.798Z,13.93
2022-08-26T20:41:48.199Z,14.17
2022-08-26T20:44:16.807Z,13.43
2022-08-26T20:46:45.325Z,13.90
2022-08-26T20:49:15.251Z,13.10
2022-08-26T20:51:43.883Z,13.83
2022-08-26T20:54:12.417Z,13.83
2022-08-26T20:56:40.845Z,13.40
2022-08-26T20:59:09.687Z,14.87
2022-08-26T21:01:42.253Z,14.73
2022-08-26T21:04:14.260Z,16.37
2022-08-26T21:06:52.641Z,16.47
2022-08-26T21:09:22.233Z,15.03
2022-08-26T21:11:51.303Z,14.87
2022-08-26T21:14:20.909Z,15.83
2022-08-26T21:16:48.922Z,15.13
2022-08-26T21:19:19.170Z,14.90
2022-08-26T21:21:49.314Z,15.70
2022-08-26T21:24:17.738Z,16.00
2022-08-26T21:26:46.056Z,16.00
2022-08-26T21:29:14.916Z,16.57
2022-08-26T21:31:46.531Z,16.13
2022-08-26T21:34:16.123Z,16.10
2022-08-26T21:36:44.187Z,15.70
2022-08-26T21:39:13.855Z,15.23
2022-08-26T21:41:42.980Z,15.70
2022-08-26T21:44:11.995Z,13.93
2022-08-26T21:46:40.204Z,15.33
2022-08-26T21:49:11.124Z,13.40
2022-08-26T21:51:41.250Z,13.83
2022-08-26T21:54:11.481Z,15.60
2022-08-26T21:56:47.115Z,14.03
2022-08-26T21:59:16.859Z,14.17
2022-08-26T22:01:44.814Z,12.33
2022-08-26T22:04:12.841Z,13.37
2022-08-26T22:06:43.410Z,13.03
2022-08-26T22:09:12.127Z,13.57
2022-08-26T22:11:41.840Z,13.03
2022-08-26T22:14:11.410Z,12.50
2022-08-26T22:16:39.425Z,11.27
2022-08-26T22:19:07.841Z,10.57
2022-08-26T22:21:40.671Z,10.87
2022-08-26T22:24:12.479Z,10.80
2022-08-26T22:26:41.880Z,11.80
2022-08-26T22:29:10.271Z,11.40
2022-08-26T22:31:38.896Z,10.97
2022-08-26T22:34:09.897Z,10.30
2022-08-26T22:36:43.320Z,10.90
2022-08-26T22:39:13.368Z,12.07
2022-08-26T22:41:43.635Z,13.70
2022-08-26T22:44:13.120Z,13.80
2022-08-26T22:46:42.769Z,12.23
2022-08-26T22:49:12.858Z,13.37
2022-08-26T22:51:40.761Z,12.17
2022-08-26T22:54:08.745Z,16.60
2022-08-26T22:56:37.201Z,14.70
2022-08-26T22:59:08.078Z,13.60
2022-08-26T23:01:37.559Z,14.93
2022-08-26T23:04:07.720Z,14.00
2022-08-26T23:06:37.587Z,14.50
2022-08-26T23:09:07.455Z,16.27
2022-08-26T23:11:36.266Z,15.60
2022-08-26T23:14:06.286Z,16.50
2022-08-26T23:16:39.171Z,15.00
2022-08-26T23:19:08.364Z,18.90
2022-08-26T23:21:36.969Z,16.87
2022-08-26T23:24:05.731Z,16.60
2022-08-26T23:26:34.068Z,18.90
2022-08-26T23:29:02.101Z,18.47
2022-08-26T23:31:30.199Z,18.83
2022-08-26T23:34:17.575Z,18.00
2022-08-26T23:36:46.265Z,21.70
2022-08-26T23:39:15.567Z,19.80
2022-08-26T23:41:43.845Z,18.47
2022-08-26T23:44:12.762Z,20.30
2022-08-26T23:46:40.911Z,19.27
2022-08-26T23:49:10.804Z,18.07
2022-08-26T23:51:57.124Z,18.90
2022-08-26T23:54:25.280Z,19.27
2022-08-26T23:56:53.389Z,19.27
2022-08-26T23:59:21.850Z,20.17
